createdAt,value
2022-10-11T00:01:23.511Z,0.47
2022-10-11T00:05:20.931Z,0.47
2022-10-11T00:09:20.796Z,0.47
2022-10-11T00:13:20.264Z,0.47
2022-10-11T00:17:20.862Z,0.47
2022-10-11T00:21:20.058Z,0.47
2022-10-11T00:25:20.969Z,0.47
2022-10-11T00:29:21.322Z,0.47
2022-10-11T00:33:20.887Z,0.47
2022-10-11T00:37:20.884Z,0.47
2022-10-11T00:41:20.979Z,0.47
2022-10-11T00:45:20.355Z,0.47
2022-10-11T00:49:19.969Z,0.47
2022-10-11T00:53:20.238Z,0.47
2022-10-11T00:57:20.799Z,0.47
2022-10-11T01:01:24.997Z,0.47
2022-10-11T01:05:50.438Z,0.47
2022-10-11T01:09:20.546Z,0.47
2022-10-11T01:13:20.052Z,0.47
2022-10-11T01:17:21.298Z,0.47
2022-10-11T01:21:20.453Z,0.47
2022-10-11T01:25:27.032Z,0.47
2022-10-11T01:29:20.735Z,0.47
2022-10-11T01:33:20.626Z,0.47
2022-10-11T01:37:21.163Z,0.47
2022-10-11T01:41:20.458Z,0.47
2022-10-11T01:45:20.840Z,0.47
2022-10-11T01:49:20.856Z,0.47
2022-10-11T01:53:20.830Z,0.47
2022-10-11T01:57:20.953Z,0.47
2022-10-11T02:01:23.435Z,0.47
2022-10-11T02:05:20.212Z,0.47
2022-10-11T02:09:20.350Z,0.47
2022-10-11T02:13:20.026Z,0.47
2022-10-11T02:17:20.646Z,0.47
2022-10-11T02:21:20.837Z,0.47
2022-10-11T02:25:20.765Z,0.47
2022-10-11T02:29:20.671Z,0.47
2022-10-11T02:33:20.225Z,0.47
2022-10-11T02:37:20.838Z,0.47
2022-10-11T02:41:20.018Z,0.47
2022-10-11T02:45:20.085Z,0.47
2022-10-11T02:49:20.458Z,0.47
2022-10-11T02:53:20.227Z,0.47
2022-10-11T02:57:21.651Z,0.47
2022-10-11T03:01:23.303Z,0.47
2022-10-11T03:05:20.799Z,0.47
2022-10-11T03:09:20.632Z,0.47
2022-10-11T03:13:20.092Z,0.47
2022-10-11T03:17:57.369Z,0.47
2022-10-11T03:21:20.783Z,0.47
2022-10-11T03:25:26.055Z,0.47
2022-10-11T03:29:20.690Z,0.47
2022-10-11T03:33:20.943Z,0.47
2022-10-11T03:37:20.911Z,0.47
2022-10-11T03:41:20.832Z,0.47
2022-10-11T03:45:20.865Z,0.47
2022-10-11T03:49:20.447Z,0.47
2022-10-11T03:53:20.333Z,0.15
2022-10-11T03:57:26.968Z,0.15
2022-10-11T04:01:23.384Z,0.15
2022-10-11T04:05:19.903Z,0.15
2022-10-11T04:09:20.827Z,0.15
2022-10-11T04:13:20.026Z,0.15
2022-10-11T04:17:23.038Z,0.15
2022-10-11T04:21:20.964Z,0.15
2022-10-11T04:25:20.940Z,0.15
2022-10-11T04:29:21.021Z,0.15
2022-10-11T04:33:20.523Z,0.15
2022-10-11T04:37:23.938Z,0.15
2022-10-11T04:41:20.913Z,0.15
2022-10-11T04:45:20.485Z,0.15
2022-10-11T04:49:20.949Z,0.15
2022-10-11T04:53:22.389Z,0.15
2022-10-11T04:57:21.561Z,0.15
2022-10-11T05:01:23.385Z,0.17
2022-10-11T05:05:20.507Z,0.17
2022-10-11T05:09:21.159Z,0.17
2022-10-11T05:13:20.535Z,0.17
2022-10-11T05:17:26.630Z,0.17
2022-10-11T05:21:20.608Z,0.17
2022-10-11T05:25:21.641Z,0.17
2022-10-11T05:29:20.613Z,0.17
2022-10-11T05:33:24.316Z,0.17
2022-10-11T05:37:21.122Z,0.17
2022-10-11T05:41:20.544Z,0.17
2022-10-11T05:45:20.002Z,0.17
2022-10-11T05:49:20.276Z,0.17
2022-10-11T05:53:20.156Z,0.17
2022-10-11T05:57:21.522Z,0.17
2022-10-11T06:01:20.410Z,0.17
2022-10-11T06:05:20.965Z,0.18
2022-10-11T06:09:20.663Z,0.18
2022-10-11T06:13:20.844Z,0.18
2022-10-11T06:17:20.863Z,0.18
2022-10-11T06:21:20.888Z,0.18
2022-10-11T06:25:20.420Z,0.18
2022-10-11T06:29:21.075Z,0.18
2022-10-11T06:33:27.277Z,0.18
2022-10-11T06:37:21.367Z,0.18
2022-10-11T06:41:20.075Z,0.18
2022-10-11T06:45:21.906Z,0.18
2022-10-11T06:49:23.363Z,0.18
2022-10-11T06:53:20.888Z,0.18
2022-10-11T06:57:20.361Z,0.18
2022-10-11T07:01:23.065Z,0.18
2022-10-11T07:05:20.013Z,0.18
2022-10-11T07:09:19.949Z,0.18
2022-10-11T07:13:27.613Z,0.18
2022-10-11T07:17:20.573Z,0.18
2022-10-11T07:21:20.824Z,0.18
2022-10-11T07:25:20.507Z,0.18
2022-10-11T07:29:20.954Z,0.18
2022-10-11T07:33:20.111Z,0.18
2022-10-11T07:37:21.306Z,0.18
2022-10-11T07:41:20.239Z,0.18
2022-10-11T07:45:20.932Z,0.18
2022-10-11T07:49:20.544Z,0.18
2022-10-11T07:53:20.303Z,0.18
2022-10-11T07:57:21.503Z,0.18
2022-10-11T08:01:23.767Z,0.18
2022-10-11T08:05:20.904Z,0.18
2022-10-11T08:09:20.087Z,0.18
2022-10-11T08:13:26.806Z,0.15
2022-10-11T08:17:20.667Z,0.15
2022-10-11T08:21:20.930Z,0.15
2022-10-11T08:25:23.591Z,0.15
2022-10-11T08:29:20.608Z,0.15
2022-10-11T08:33:20.997Z,0.15
2022-10-11T08:37:21.485Z,0.15
2022-10-11T08:41:20.607Z,0.15
2022-10-11T08:45:54.361Z,0.15
2022-10-11T08:49:20.659Z,0.15
2022-10-11T08:53:19.935Z,0.15
2022-10-11T08:57:20.584Z,0.15
2022-10-11T09:01:22.717Z,0.15
2022-10-11T09:05:20.543Z,0.15
2022-10-11T09:09:20.687Z,0.15
2022-10-11T09:13:27.157Z,0.15
2022-10-11T09:17:20.717Z,0.15
2022-10-11T09:21:19.993Z,0.17
2022-10-11T09:25:20.482Z,0.41
2022-10-11T09:29:24.223Z,0.41
2022-10-11T09:33:20.516Z,0.52
2022-10-11T09:37:20.517Z,0.58
2022-10-11T09:41:20.315Z,0.58
2022-10-11T09:45:20.870Z,0.62
2022-10-11T09:49:20.028Z,0.66
2022-10-11T09:53:20.874Z,0.66
2022-10-11T09:57:20.447Z,0.68
2022-10-11T10:01:30.684Z,0.7
2022-10-11T10:05:20.948Z,0.7
2022-10-11T10:09:23.849Z,0.71
2022-10-11T10:13:20.871Z,0.74
2022-10-11T10:17:21.430Z,0.74
2022-10-11T10:21:20.939Z,0.77
2022-10-11T10:25:20.416Z,0.78
2022-10-11T10:29:20.812Z,0.78
2022-10-11T10:33:35.594Z,0.79
2022-10-11T10:37:20.083Z,0.8
2022-10-11T10:41:20.043Z,0.8
2022-10-11T10:45:24.995Z,0.81
2022-10-11T10:50:28.108Z,0.81
2022-10-11T10:53:20.369Z,0.81
2022-10-11T10:57:20.651Z,0.81
2022-10-11T11:01:23.359Z,0.82
2022-10-11T11:05:22.498Z,0.82
2022-10-11T11:09:20.921Z,0.84
2022-10-11T11:13:20.823Z,0.84
2022-10-11T11:17:20.242Z,0.84
2022-10-11T11:21:20.669Z,0.85
2022-10-11T11:25:21.342Z,0.84
2022-10-11T11:29:21.423Z,0.84
2022-10-11T11:33:20.786Z,0.85
2022-10-11T11:37:20.964Z,0.87
2022-10-11T11:41:21.049Z,0.87
2022-10-11T11:45:23.931Z,0.87
2022-10-11T11:49:24.386Z,0.87
2022-10-11T11:53:20.164Z,0.87
2022-10-11T11:57:20.701Z,0.87
2022-10-11T12:01:25.533Z,0.87
2022-10-11T12:05:20.750Z,0.87
2022-10-11T12:09:20.845Z,0.87
2022-10-11T12:13:20.150Z,0.87
2022-10-11T12:17:20.855Z,0.89
2022-10-11T12:21:20.721Z,0.89
2022-10-11T12:25:20.049Z,0.88
2022-10-11T12:29:22.448Z,0.88
2022-10-11T12:33:20.296Z,0.89
2022-10-11T12:37:29.283Z,0.9
2022-10-11T12:41:21.149Z,0.9
2022-10-11T12:45:21.025Z,0.89
2022-10-11T12:49:28.149Z,0.89
2022-10-11T12:53:20.322Z,0.89
2022-10-11T12:57:23.684Z,0.9
2022-10-11T13:01:23.169Z,0.9
2022-10-11T13:05:20.809Z,0.9
2022-10-11T13:09:20.449Z,0.9
2022-10-11T13:13:19.996Z,0.9
2022-10-11T13:17:20.728Z,0.9
2022-10-11T13:21:31.434Z,0.9
2022-10-11T13:25:21.003Z,0.9
2022-10-11T13:29:21.784Z,0.91
2022-10-11T13:33:20.092Z,0.91
2022-10-11T13:37:20.359Z,0.91
2022-10-11T13:41:24.854Z,0.91
2022-10-11T13:45:20.750Z,0.91
2022-10-11T13:49:27.117Z,0.91
2022-10-11T13:53:20.012Z,0.91
2022-10-11T13:57:20.908Z,0.91
2022-10-11T14:01:23.924Z,0.91
2022-10-11T14:05:26.083Z,0.91
2022-10-11T14:09:20.085Z,0.91
2022-10-11T14:13:20.207Z,0.91
2022-10-11T14:17:20.458Z,0.91
2022-10-11T14:21:30.457Z,0.91
2022-10-11T14:25:20.443Z,0.91
2022-10-11T14:29:20.845Z,0.91
2022-10-11T14:33:20.694Z,0.91
2022-10-11T14:37:20.974Z,0.91
2022-10-11T14:41:20.580Z,0.91
2022-10-11T14:45:19.997Z,0.91
2022-10-11T14:49:51.031Z,0.91
2022-10-11T14:53:20.387Z,0.91
2022-10-11T14:57:25.198Z,0.91
2022-10-11T15:01:21.113Z,0.91
2022-10-11T15:05:20.185Z,0.91
2022-10-11T15:09:20.661Z,0.91
2022-10-11T15:13:20.669Z,0.91
2022-10-11T15:17:20.123Z,0.91
2022-10-11T15:21:20.942Z,0.91
2022-10-11T15:25:25.477Z,0.91
2022-10-11T15:29:21.549Z,0.91
2022-10-11T15:33:20.802Z,0.91
2022-10-11T15:37:20.630Z,0.91
2022-10-11T15:41:21.056Z,0.92
2022-10-11T15:45:20.246Z,0.92
2022-10-11T15:49:20.864Z,0.92
2022-10-11T15:53:20.829Z,0.92
2022-10-11T15:57:20.835Z,0.93
2022-10-11T16:01:30.630Z,0.93
2022-10-11T16:05:20.290Z,0.93
2022-10-11T16:09:20.866Z,0.93
2022-10-11T16:13:19.911Z,0.93
2022-10-11T16:17:23.529Z,0.94
2022-10-11T16:21:21.708Z,0.94
2022-10-11T16:25:20.505Z,0.94
2022-10-11T16:29:21.265Z,0.94
2022-10-11T16:33:20.452Z,0.95
2022-10-11T16:37:21.330Z,0.94
2022-10-11T16:41:21.163Z,0.95
2022-10-11T16:45:20.674Z,0.95
2022-10-11T16:49:20.348Z,0.95
2022-10-11T16:53:20.146Z,0.95
2022-10-11T16:57:25.268Z,0.95
2022-10-11T17:01:25.574Z,0.95
2022-10-11T17:05:20.981Z,0.95
2022-10-11T17:09:20.751Z,0.95
2022-10-11T17:13:24.300Z,0.95
2022-10-11T17:17:20.724Z,0.96
2022-10-11T17:21:20.832Z,0.96
2022-10-11T17:25:21.216Z,0.96
2022-10-11T17:29:21.293Z,0.96
2022-10-11T17:33:20.473Z,0.97
2022-10-11T17:37:20.761Z,0.97
2022-10-11T17:41:20.970Z,0.97
2022-10-11T17:45:20.041Z,0.97
2022-10-11T17:49:20.769Z,0.97
2022-10-11T17:53:20.900Z,0.97
2022-10-11T17:57:25.105Z,0.97
2022-10-11T18:01:23.654Z,0.97
2022-10-11T18:05:20.133Z,0.97
2022-10-11T18:09:25.308Z,0.97
2022-10-11T18:13:26.403Z,0.97
2022-10-11T18:17:20.831Z,0.97
2022-10-11T18:21:20.468Z,0.97
2022-10-11T18:25:19.875Z,0.97
2022-10-11T18:29:21.481Z,0.98
2022-10-11T18:33:20.843Z,0.99
2022-10-11T18:37:20.172Z,0.99
2022-10-11T18:41:21.146Z,0.99
2022-10-11T18:45:20.875Z,0.98
2022-10-11T18:49:20.591Z,0.98
2022-10-11T18:53:20.414Z,0.97
2022-10-11T18:57:21.151Z,0.96
2022-10-11T19:01:50.273Z,0.96
2022-10-11T19:05:20.385Z,0.95
2022-10-11T19:09:20.343Z,0.94
2022-10-11T19:13:20.626Z,0.94
2022-10-11T19:17:20.945Z,0.94
2022-10-11T19:21:20.630Z,0.93
2022-10-11T19:25:20.895Z,0.93
2022-10-11T19:29:23.945Z,0.92
2022-10-11T19:33:20.231Z,0.92
2022-10-11T19:37:22.053Z,0.92
2022-10-11T19:41:20.226Z,0.91
2022-10-11T19:45:24.757Z,0.91
2022-10-11T19:49:20.869Z,0.91
2022-10-11T19:53:20.728Z,0.91
2022-10-11T19:57:20.704Z,0.91
2022-10-11T20:01:23.631Z,0.91
2022-10-11T20:05:54.889Z,0.9
2022-10-11T20:09:50.814Z,0.9
2022-10-11T20:13:21.101Z,0.9
2022-10-11T20:17:20.296Z,0.9
2022-10-11T20:21:21.010Z,0.9
2022-10-11T20:25:20.453Z,0.9
2022-10-11T20:29:20.607Z,0.9
2022-10-11T20:33:20.532Z,0.9
2022-10-11T20:37:23.064Z,0.9
2022-10-11T20:41:20.559Z,0.9
2022-10-11T20:45:20.798Z,0.89
2022-10-11T20:49:24.447Z,0.89
2022-10-11T20:53:27.444Z,0.89
2022-10-11T20:57:20.357Z,0.89
2022-10-11T21:01:23.507Z,0.89
2022-10-11T21:05:20.498Z,0.89
2022-10-11T21:09:25.253Z,0.89
2022-10-11T21:13:20.914Z,0.89
2022-10-11T21:17:20.489Z,0.89
2022-10-11T21:21:20.830Z,0.89
2022-10-11T21:25:20.553Z,0.89
2022-10-11T21:29:20.853Z,0.89
2022-10-11T21:33:22.925Z,0.89
2022-10-11T21:37:20.677Z,0.89
2022-10-11T21:41:20.361Z,0.88
2022-10-11T21:45:20.333Z,0.88
2022-10-11T21:49:20.857Z,0.88
2022-10-11T21:53:21.188Z,0.88
2022-10-11T21:57:20.646Z,0.89
2022-10-11T22:01:30.782Z,0.89
2022-10-11T22:05:20.581Z,0.89
2022-10-11T22:09:20.280Z,0.89
2022-10-11T22:13:21.128Z,0.89
2022-10-11T22:17:20.212Z,0.88
2022-10-11T22:21:20.806Z,0.89
2022-10-11T22:25:21.032Z,0.89
2022-10-11T22:29:21.055Z,0.89
2022-10-11T22:33:20.797Z,0.89
2022-10-11T22:37:20.332Z,0.89
2022-10-11T22:41:20.408Z,0.89
2022-10-11T22:45:20.526Z,0.89
2022-10-11T22:49:20.097Z,0.89
2022-10-11T22:53:20.874Z,0.89
2022-10-11T22:57:20.317Z,0.89
2022-10-11T23:01:23.129Z,0.89
2022-10-11T23:05:21.027Z,0.89
2022-10-11T23:09:20.763Z,0.89
2022-10-11T23:13:21.070Z,0.89
2022-10-11T23:17:20.856Z,0.89
2022-10-11T23:21:22.935Z,0.89
2022-10-11T23:25:20.888Z,0.89
2022-10-11T23:29:21.007Z,0.89
2022-10-11T23:33:20.636Z,0.89
2022-10-11T23:37:20.778Z,0.89
2022-10-11T23:41:20.140Z,0.89
2022-10-11T23:45:20.253Z,0.89
2022-10-11T23:49:20.689Z,0.9
2022-10-11T23:53:20.791Z,0.9
2022-10-11T23:57:20.128Z,0.9
